Time;durP1;ratioP1;P1;durP2;ratioP2;P2;SDS_P1;SDS_P2;PMS_P1;PMS_P2;Temp;Humidity;BMP_temperature;BMP_pressure;BME280_temperature;BME280_humidity;BME280_pressure;Samples;Min_cycle;Max_cycle;Signal;HPM_P1;HPM_P2
2022/05/16 00:02:36;;;;;;;10.45;5.88;;;;;;;;;;6259642;28;20503;-50
2022/05/16 00:05:37;;;;;;;11.55;5.68;;;;;;;;;;6264569;28;20048;-51
2022/05/16 00:08:37;;;;;;;11.75;5.80;;;;;;;;;;6258539;28;20045;-53
2022/05/16 00:11:38;;;;;;;10.10;4.95;;;;;;;;;;6259963;28;20068;-52
2022/05/16 00:14:40;;;;;;;12.10;5.60;;;;;;;;;;6258952;28;20073;-50
2022/05/16 00:17:41;;;;;;;11.02;5.57;;;;;;;;;;6258216;28;20041;-51
2022/05/16 00:20:42;;;;;;;9.45;5.30;;;;;;;;;;6260978;28;20507;-57
2022/05/16 00:23:43;;;;;;;8.80;5.10;;;;;;;;;;6262254;28;20052;-51
2022/05/16 00:26:43;;;;;;;11.00;5.65;;;;;;;;;;6266075;28;20136;-52
2022/05/16 00:29:44;;;;;;;10.95;5.22;;;;;;;;;;6267564;28;20140;-53
2022/05/16 00:32:48;;;;;;;9.45;5.47;;;;;;;;;;6265445;28;20477;-53
2022/05/16 00:35:49;;;;;;;12.20;5.13;;;;;;;;;;6268733;28;20480;-51
2022/05/16 00:38:50;;;;;;;11.02;4.90;;;;;;;;;;6259556;28;20045;-55
2022/05/16 00:41:52;;;;;;;13.33;6.37;;;;;;;;;;6265866;28;20071;-51
2022/05/16 00:44:52;;;;;;;12.05;5.68;;;;;;;;;;6261135;28;20271;-49
2022/05/16 00:47:53;;;;;;;13.80;6.53;;;;;;;;;;6262157;28;20048;-50
2022/05/16 00:50:54;;;;;;;11.15;5.28;;;;;;;;;;6261481;28;20055;-52
2022/05/16 00:54:05;;;;;;;11.82;5.88;;;;;;;;;;6264677;28;20083;-56
2022/05/16 00:57:11;;;;;;;14.45;5.78;;;;;;;;;;6265197;28;20045;-54
2022/05/16 01:00:31;;;;;;;12.75;5.70;;;;;;;;;;6259069;28;20057;-51
2022/05/16 01:06:54;;;;;;;9.88;5.35;;;;;;;;;;6264603;28;20037;-54
2022/05/16 01:09:56;;;;;;;12.88;6.50;;;;;;;;;;6264506;28;20175;-58
2022/05/16 01:12:57;;;;;;;10.60;5.15;;;;;;;;;;6259785;28;20390;-56
2022/05/16 01:15:59;;;;;;;13.00;5.53;;;;;;;;;;6265387;28;20056;-49
2022/05/16 01:18:59;;;;;;;10.50;5.22;;;;;;;;;;6261167;28;20095;-51
2022/05/16 01:22:06;;;;;;;13.02;6.10;;;;;;;;;;6261069;28;20461;-53
2022/05/16 01:25:08;;;;;;;11.35;5.65;;;;;;;;;;6262275;28;20724;-52
2022/05/16 01:28:09;;;;;;;12.43;6.65;;;;;;;;;;6258408;28;20484;-53
2022/05/16 01:31:10;;;;;;;13.75;5.90;;;;;;;;;;6259916;28;20049;-50
2022/05/16 01:34:12;;;;;;;11.02;6.10;;;;;;;;;;6260923;28;20492;-56
2022/05/16 01:37:12;;;;;;;15.67;6.63;;;;;;;;;;6267597;28;20147;-51
2022/05/16 01:40:13;;;;;;;14.35;6.25;;;;;;;;;;6262898;28;20056;-55
2022/05/16 01:43:15;;;;;;;13.02;5.53;;;;;;;;;;6269267;28;20480;-60
2022/05/16 01:46:21;;;;;;;12.13;5.43;;;;;;;;;;6260511;28;20053;-51
2022/05/16 01:49:21;;;;;;;16.05;6.55;;;;;;;;;;6267049;28;20781;-56
2022/05/16 01:52:22;;;;;;;14.23;6.05;;;;;;;;;;6264379;28;20049;-53
2022/05/16 01:55:22;;;;;;;11.10;5.60;;;;;;;;;;6264626;28;20472;-51
2022/05/16 01:58:23;;;;;;;12.70;5.75;;;;;;;;;;6266424;28;20496;-49
2022/05/16 02:01:25;;;;;;;15.02;6.57;;;;;;;;;;6262744;28;20492;-52
2022/05/16 02:04:25;;;;;;;13.02;6.05;;;;;;;;;;6266660;28;20045;-60
2022/05/16 02:07:27;;;;;;;13.98;6.38;;;;;;;;;;6264128;28;20072;-58
2022/05/16 02:10:29;;;;;;;11.35;6.03;;;;;;;;;;6261655;28;20053;-52
2022/05/16 02:13:31;;;;;;;15.32;8.10;;;;;;;;;;6266233;28;20076;-57
2022/05/16 02:16:32;;;;;;;13.63;6.38;;;;;;;;;;6258777;28;20041;-54
2022/05/16 02:19:32;;;;;;;10.32;5.85;;;;;;;;;;6258364;28;20060;-50
2022/05/16 02:25:52;;;;;;;14.10;6.70;;;;;;;;;;6259931;28;20099;-50
2022/05/16 02:28:53;;;;;;;12.32;6.43;;;;;;;;;;6264035;28;20102;-53
2022/05/16 02:31:54;;;;;;;15.40;6.43;;;;;;;;;;6262923;28;20080;-52
2022/05/16 02:34:55;;;;;;;15.05;7.00;;;;;;;;;;6260707;28;20063;-54
2022/05/16 02:37:59;;;;;;;12.00;6.72;;;;;;;;;;6268230;28;20084;-60
2022/05/16 02:40:59;;;;;;;14.00;6.97;;;;;;;;;;6258402;28;20052;-54
2022/05/16 02:44:00;;;;;;;13.43;6.50;;;;;;;;;;6265474;28;20078;-57
2022/05/16 02:47:01;;;;;;;16.20;6.70;;;;;;;;;;6256583;28;20493;-51
2022/05/16 02:50:03;;;;;;;13.52;6.93;;;;;;;;;;6260510;28;20143;-49
2022/05/16 02:53:07;;;;;;;12.30;6.38;;;;;;;;;;6263091;28;20049;-51
2022/05/16 02:56:07;;;;;;;10.70;6.05;;;;;;;;;;6260767;28;20091;-59
2022/05/16 02:59:08;;;;;;;12.95;6.57;;;;;;;;;;6264678;28;20128;-57
2022/05/16 03:02:11;;;;;;;12.60;6.45;;;;;;;;;;6262163;28;20518;-53
2022/05/16 03:05:12;;;;;;;14.95;6.00;;;;;;;;;;6262803;28;20052;-60
2022/05/16 03:08:12;;;;;;;14.73;6.60;;;;;;;;;;6265099;28;20429;-58
2022/05/16 03:11:13;;;;;;;11.32;7.07;;;;;;;;;;6256945;28;20106;-56
2022/05/16 03:14:13;;;;;;;15.98;6.97;;;;;;;;;;6261594;28;20472;-56
2022/05/16 03:17:14;;;;;;;11.98;5.80;;;;;;;;;;6261019;28;20041;-53
2022/05/16 03:20:16;;;;;;;12.00;6.45;;;;;;;;;;6257175;28;20068;-51
2022/05/16 03:23:16;;;;;;;11.00;6.65;;;;;;;;;;6261763;28;20061;-52
2022/05/16 03:26:17;;;;;;;15.07;6.40;;;;;;;;;;6260959;28;20060;-51
2022/05/16 03:29:17;;;;;;;13.70;6.40;;;;;;;;;;6259976;28;20047;-54
2022/05/16 03:32:18;;;;;;;11.10;6.22;;;;;;;;;;6258417;28;20056;-58
2022/05/16 03:35:19;;;;;;;13.48;6.28;;;;;;;;;;6263444;28;20472;-52
2022/05/16 03:41:46;;;;;;;13.73;6.63;;;;;;;;;;6266338;28;20162;-57
2022/05/16 03:44:47;;;;;;;12.45;6.25;;;;;;;;;;6258383;28;20045;-52
2022/05/16 03:47:47;;;;;;;14.05;5.80;;;;;;;;;;6255835;28;20400;-50
2022/05/16 03:50:48;;;;;;;12.82;6.15;;;;;;;;;;6257761;28;20487;-49
2022/05/16 03:53:48;;;;;;;12.95;6.88;;;;;;;;;;6261299;28;20144;-51
2022/05/16 03:56:49;;;;;;;13.38;7.07;;;;;;;;;;6262038;28;20130;-53
2022/05/16 03:59:50;;;;;;;13.75;6.45;;;;;;;;;;6270299;28;20120;-51
2022/05/16 04:02:51;;;;;;;13.90;6.30;;;;;;;;;;6265754;28;20059;-58
2022/05/16 04:05:52;;;;;;;17.60;6.88;;;;;;;;;;6265787;28;20193;-58
2022/05/16 04:08:54;;;;;;;15.75;7.22;;;;;;;;;;6264046;28;20476;-56
2022/05/16 04:11:54;;;;;;;13.90;6.85;;;;;;;;;;6268225;28;20507;-51
2022/05/16 04:14:55;;;;;;;15.60;6.72;;;;;;;;;;6261817;28;20094;-52
2022/05/16 04:17:56;;;;;;;13.70;7.30;;;;;;;;;;6268791;28;20072;-60
2022/05/16 04:20:57;;;;;;;17.60;6.93;;;;;;;;;;6262911;28;20045;-57
2022/05/16 04:23:57;;;;;;;20.38;7.60;;;;;;;;;;6266033;28;20135;-60
2022/05/16 04:26:58;;;;;;;18.63;7.55;;;;;;;;;;6268005;28;20057;-60
2022/05/16 04:29:58;;;;;;;19.27;8.18;;;;;;;;;;6265281;28;20522;-51
2022/05/16 04:32:59;;;;;;;18.60;8.15;;;;;;;;;;6261113;28;21497;-52
2022/05/16 04:36:00;;;;;;;21.38;8.52;;;;;;;;;;6265231;28;20045;-60
2022/05/16 04:39:01;;;;;;;15.73;7.83;;;;;;;;;;6263271;28;20135;-59
2022/05/16 04:45:25;;;;;;;19.60;8.23;;;;;;;;;;6251673;28;20342;-60
2022/05/16 04:48:25;;;;;;;17.67;8.40;;;;;;;;;;6253151;28;20053;-53
2022/05/16 04:51:26;;;;;;;22.30;9.60;;;;;;;;;;6251383;28;20536;-56
2022/05/16 04:54:27;;;;;;;19.80;9.73;;;;;;;;;;6254048;28;20046;-60
2022/05/16 04:57:28;;;;;;;21.40;9.17;;;;;;;;;;6258257;28;20618;-51
2022/05/16 05:00:29;;;;;;;22.88;10.70;;;;;;;;;;6262213;28;20385;-57
2022/05/16 05:03:30;;;;;;;20.20;9.65;;;;;;;;;;6259968;28;20053;-60
2022/05/16 05:06:31;;;;;;;17.92;9.20;;;;;;;;;;6263841;28;20068;-54
2022/05/16 05:14:31;;;;;;;20.52;9.73;;;;;;;;;;6264696;28;20175;-57
2022/05/16 05:16:17;;;;;;;30.90;11.65;;;;;;;;;;6261724;28;20083;-52
2022/05/16 05:19:17;;;;;;;21.50;11.30;;;;;;;;;;6267535;28;20115;-51
2022/05/16 05:22:18;;;;;;;21.63;11.30;;;;;;;;;;6267712;28;20080;-53
2022/05/16 05:25:20;;;;;;;21.23;12.10;;;;;;;;;;6264953;28;20057;-57
2022/05/16 05:28:21;;;;;;;;;;;;;;;;;;6268397;28;20052;-60
2022/05/16 05:31:25;;;;;;;24.90;12.40;;;;;;;;;;6261963;28;20019;-57
2022/05/16 05:34:26;;;;;;;24.33;12.68;;;;;;;;;;6267088;28;20741;-55
2022/05/16 05:37:26;;;;;;;22.05;12.93;;;;;;;;;;6263790;28;20051;-53
2022/05/16 05:40:27;;;;;;;28.65;14.95;;;;;;;;;;6261001;28;20076;-58
2022/05/16 05:43:27;;;;;;;27.67;14.07;;;;;;;;;;6264690;28;20140;-50
2022/05/16 05:46:34;;;;;;;26.83;14.38;;;;;;;;;;6259722;28;20416;-49
2022/05/16 05:49:36;;;;;;;28.50;15.73;;;;;;;;;;6261178;28;20453;-60
2022/05/16 05:52:38;;;;;;;31.80;15.65;;;;;;;;;;6259605;28;20064;-54
2022/05/16 05:55:40;;;;;;;28.02;15.73;;;;;;;;;;6262043;28;20144;-60
2022/05/16 05:58:40;;;;;;;29.73;16.75;;;;;;;;;;6264928;28;20091;-55
2022/05/16 06:01:41;;;;;;;26.50;16.30;;;;;;;;;;6264684;28;20548;-55
2022/05/16 06:04:41;;;;;;;25.77;14.70;;;;;;;;;;6265761;28;20409;-50
2022/05/16 06:07:42;;;;;;;26.88;14.88;;;;;;;;;;6264026;28;20550;-50
2022/05/16 06:10:43;;;;;;;30.70;14.95;;;;;;;;;;6264473;28;20500;-53
2022/05/16 06:13:43;;;;;;;29.52;13.30;;;;;;;;;;6263580;28;20504;-50
2022/05/16 06:16:44;;;;;;;24.17;13.57;;;;;;;;;;6266688;28;20143;-51
2022/05/16 06:19:45;;;;;;;21.10;10.80;;;;;;;;;;6264787;28;20053;-59
2022/05/16 06:22:45;;;;;;;25.02;10.68;;;;;;;;;;6266040;28;20045;-52
2022/05/16 06:25:46;;;;;;;17.58;10.68;;;;;;;;;;6265297;28;20568;-60
2022/05/16 06:28:47;;;;;;;23.30;10.10;;;;;;;;;;6266036;28;20048;-59
2022/05/16 06:31:47;;;;;;;18.60;9.63;;;;;;;;;;6265872;28;20041;-57
2022/05/16 06:34:48;;;;;;;19.05;10.25;;;;;;;;;;6266790;28;20098;-54
2022/05/16 06:37:50;;;;;;;20.77;10.23;;;;;;;;;;6264234;28;20064;-50
2022/05/16 06:40:51;;;;;;;19.23;9.77;;;;;;;;;;6264976;28;20072;-56
2022/05/16 06:43:51;;;;;;;17.13;9.30;;;;;;;;;;6267485;28;20547;-53
2022/05/16 06:46:53;;;;;;;22.20;8.98;;;;;;;;;;6264034;28;20044;-56
2022/05/16 06:49:53;;;;;;;14.38;7.80;;;;;;;;;;6265293;28;20120;-54
2022/05/16 06:52:54;;;;;;;12.05;5.85;;;;;;;;;;6263315;28;20051;-56
2022/05/16 06:55:55;;;;;;;10.98;6.18;;;;;;;;;;6266559;28;20088;-53
2022/05/16 06:58:56;;;;;;;13.30;5.75;;;;;;;;;;6266971;28;20063;-57
2022/05/16 07:01:57;;;;;;;13.60;5.72;;;;;;;;;;6262505;28;20048;-55
2022/05/16 07:04:58;;;;;;;11.90;5.70;;;;;;;;;;6263703;28;20128;-56
2022/05/16 07:07:59;;;;;;;16.90;7.60;;;;;;;;;;6263831;28;20428;-58
2022/05/16 07:11:00;;;;;;;15.18;6.93;;;;;;;;;;6265830;28;20590;-57
2022/05/16 07:14:00;;;;;;;15.60;6.25;;;;;;;;;;6264558;28;20486;-60
2022/05/16 07:17:01;;;;;;;8.75;3.67;;;;;;;;;;6263620;28;20140;-58
2022/05/16 07:20:03;;;;;;;10.05;3.92;;;;;;;;;;6263547;28;20088;-50
2022/05/16 07:23:04;;;;;;;15.23;5.75;;;;;;;;;;6265018;28;20083;-52
2022/05/16 07:29:23;;;;;;;9.18;3.45;;;;;;;;;;6265961;28;20084;-50
2022/05/16 07:32:33;;;;;;;9.32;3.05;;;;;;;;;;6262730;28;20407;-50
2022/05/16 07:35:35;;;;;;;10.73;3.40;;;;;;;;;;6262719;28;20081;-58
2022/05/16 07:38:36;;;;;;;9.65;4.90;;;;;;;;;;6261863;28;20040;-55
2022/05/16 07:41:38;;;;;;;10.05;4.03;;;;;;;;;;6259143;28;20491;-49
2022/05/16 07:44:40;;;;;;;;;;;;;;;;;;6262495;28;20140;-53
2022/05/16 07:47:41;;;;;;;10.60;3.92;;;;;;;;;;6262607;28;19956;-57
2022/05/16 07:50:43;;;;;;;8.88;3.92;;;;;;;;;;6261803;28;20545;-54
2022/05/16 07:53:44;;;;;;;7.28;3.63;;;;;;;;;;6261000;28;20511;-55
2022/05/16 07:56:45;;;;;;;7.75;3.97;;;;;;;;;;6264098;28;20135;-53
2022/05/16 07:59:46;;;;;;;9.43;3.97;;;;;;;;;;6258390;28;20103;-58
2022/05/16 08:02:47;;;;;;;9.27;3.40;;;;;;;;;;6264061;28;20536;-53
2022/05/16 08:05:48;;;;;;;11.85;4.75;;;;;;;;;;6265362;28;20045;-52
2022/05/16 08:12:08;;;;;;;9.90;3.80;;;;;;;;;;6262727;28;20053;-60
2022/05/16 08:15:08;;;;;;;7.93;4.03;;;;;;;;;;6260830;28;20060;-55
2022/05/16 08:18:12;;;;;;;9.13;3.70;;;;;;;;;;6255666;28;20080;-52
2022/05/16 08:21:12;;;;;;;9.82;4.32;;;;;;;;;;6261935;28;20484;-55
2022/05/16 08:24:13;;;;;;;11.27;4.97;;;;;;;;;;6259370;28;20134;-56
2022/05/16 08:27:14;;;;;;;6.90;3.10;;;;;;;;;;6258900;28;20147;-54
2022/05/16 08:30:14;;;;;;;7.33;3.40;;;;;;;;;;6258636;28;20049;-59
2022/05/16 08:33:15;;;;;;;8.70;3.50;;;;;;;;;;6261115;28;20132;-58
2022/05/16 08:39:55;;;;;;;7.72;3.58;;;;;;;;;;6259843;28;20136;-53
2022/05/16 08:43:03;;;;;;;7.82;3.40;;;;;;;;;;6261618;28;20773;-60
2022/05/16 08:46:14;;;;;;;8.50;4.13;;;;;;;;;;6264793;28;20049;-58
2022/05/16 08:49:28;;;;;;;10.13;3.72;;;;;;;;;;6264710;28;20076;-60
2022/05/16 08:52:36;;;;;;;7.95;3.25;;;;;;;;;;6262016;28;20061;-60
2022/05/16 08:55:46;;;;;;;8.80;3.50;;;;;;;;;;6259307;28;20527;-59
2022/05/16 08:58:58;;;;;;;10.88;3.45;;;;;;;;;;6263650;28;20056;-56
2022/05/16 09:02:08;;;;;;;8.65;3.47;;;;;;;;;;6266454;28;20126;-53
2022/05/16 09:05:24;;;;;;;7.80;3.60;;;;;;;;;;6260666;28;20045;-56
2022/05/16 09:08:28;;;;;;;9.27;3.40;;;;;;;;;;6264386;28;20052;-60
2022/05/16 09:11:40;;;;;;;6.65;3.00;;;;;;;;;;6260617;28;20416;-56
2022/05/16 09:15:05;;;;;;;7.28;3.13;;;;;;;;;;6263391;28;20734;-54
2022/05/16 09:18:22;;;;;;;9.02;3.60;;;;;;;;;;6259431;28;20405;-51
2022/05/16 09:21:38;;;;;;;11.88;3.90;;;;;;;;;;6263538;28;20110;-53
2022/05/16 09:24:49;;;;;;;10.25;3.65;;;;;;;;;;6264899;28;20076;-54
2022/05/16 09:31:30;;;;;;;7.32;3.00;;;;;;;;;;6262267;28;20049;-50
2022/05/16 09:34:32;;;;;;;7.47;3.25;;;;;;;;;;6261522;28;20059;-55
2022/05/16 09:37:33;;;;;;;6.93;3.72;;;;;;;;;;6262651;28;20049;-51
2022/05/16 09:40:40;;;;;;;6.03;2.90;;;;;;;;;;6265359;28;20076;-60
2022/05/16 09:43:44;;;;;;;8.35;2.70;;;;;;;;;;6261770;28;20064;-52
2022/05/16 09:46:45;;;;;;;7.25;2.97;;;;;;;;;;6260314;28;20072;-60
2022/05/16 09:50:09;;;;;;;7.43;3.77;;;;;;;;;;6263363;28;20049;-56
2022/05/16 09:53:14;;;;;;;8.45;4.93;;;;;;;;;;6262776;28;20106;-51
2022/05/16 09:56:28;;;;;;;7.88;4.25;;;;;;;;;;6257420;28;20061;-60
2022/05/16 09:59:50;;;;;;;9.63;4.32;;;;;;;;;;6262708;28;20044;-52
2022/05/16 10:03:00;;;;;;;11.68;3.70;;;;;;;;;;6266050;28;20048;-51
2022/05/16 10:06:33;;;;;;;11.60;4.00;;;;;;;;;;6254690;28;20550;-50
2022/05/16 10:09:39;;;;;;;7.28;3.30;;;;;;;;;;6255927;28;20079;-59
2022/05/16 10:12:40;;;;;;;11.63;3.90;;;;;;;;;;6261992;28;20083;-54
2022/05/16 10:15:41;;;;;;;9.07;3.70;;;;;;;;;;6262094;28;20098;-61
2022/05/16 10:18:47;;;;;;;8.90;3.80;;;;;;;;;;6255865;28;20076;-60
2022/05/16 10:21:55;;;;;;;11.15;3.90;;;;;;;;;;6263771;28;20041;-61
2022/05/16 10:24:59;;;;;;;8.85;3.70;;;;;;;;;;6257107;28;20169;-60
2022/05/16 10:28:03;;;;;;;10.70;4.03;;;;;;;;;;6260226;28;20159;-61
2022/05/16 10:34:43;;;;;;;9.23;3.90;;;;;;;;;;6256199;28;20049;-60
2022/05/16 10:37:46;;;;;;;7.25;3.58;;;;;;;;;;6257711;28;20102;-60
2022/05/16 10:40:54;;;;;;;12.02;3.92;;;;;;;;;;6262144;28;20399;-60
2022/05/16 10:44:08;;;;;;;8.60;3.63;;;;;;;;;;6261646;28;20056;-58
2022/05/16 10:47:23;;;;;;;6.95;2.70;;;;;;;;;;6262836;28;20045;-58
2022/05/16 10:50:53;;;;;;;8.57;3.42;;;;;;;;;;6258744;28;20087;-60
2022/05/16 10:54:10;;;;;;;9.27;3.20;;;;;;;;;;6261566;28;20041;-58
2022/05/16 10:57:16;;;;;;;9.20;4.05;;;;;;;;;;6263556;28;20072;-62
2022/05/16 11:00:20;;;;;;;9.02;3.67;;;;;;;;;;6258367;28;20049;-60
2022/05/16 11:03:48;;;;;;;11.57;4.28;;;;;;;;;;6261023;28;20048;-61
2022/05/16 11:07:10;;;;;;;7.57;3.60;;;;;;;;;;6261351;28;20081;-61
2022/05/16 11:10:23;;;;;;;12.45;4.07;;;;;;;;;;6259347;28;20056;-59
2022/05/16 11:13:48;;;;;;;11.63;4.30;;;;;;;;;;6259633;28;20046;-60
2022/05/16 11:16:54;;;;;;;8.45;3.95;;;;;;;;;;6262626;28;20140;-53
2022/05/16 11:20:25;;;;;;;8.52;3.40;;;;;;;;;;6257681;28;20049;-60
2022/05/16 11:23:45;;;;;;;11.33;3.70;;;;;;;;;;6242914;28;20045;-60
2022/05/16 11:27:07;;;;;;;8.52;3.88;;;;;;;;;;6236098;28;20067;-53
2022/05/16 11:30:20;;;;;;;6.88;3.72;;;;;;;;;;6243167;28;20107;-61
2022/05/16 11:33:43;;;;;;;12.00;4.80;;;;;;;;;;6251544;28;20575;-57
2022/05/16 11:36:55;;;;;;;10.48;4.85;;;;;;;;;;6254340;28;20080;-60
2022/05/16 11:39:55;;;;;;;;;;;;;;;;;;6252059;28;20472;-58
2022/05/16 11:43:18;;;;;;;10.73;4.57;;;;;;;;;;6244245;28;19951;-61
2022/05/16 11:46:26;;;;;;;9.90;4.85;;;;;;;;;;6242719;28;20453;-53
2022/05/16 11:49:51;;;;;;;11.30;4.68;;;;;;;;;;6249966;28;20073;-55
2022/05/16 11:53:01;;;;;;;8.43;3.97;;;;;;;;;;6250889;28;20045;-61
2022/05/16 12:03:07;;;;;;;9.85;4.13;;;;;;;;;;6231264;28;20200;-59
2022/05/16 12:06:34;;;;;;;9.63;4.05;;;;;;;;;;6234061;28;20053;-58
2022/05/16 12:09:56;;;;;;;17.55;4.70;;;;;;;;;;6239712;28;20088;-56
2022/05/16 12:13:18;;;;;;;;;;;;;;;;;;6239893;28;20057;-61
2022/05/16 12:16:34;;;;;;;11.23;3.95;;;;;;;;;;6241389;28;19925;-55
2022/05/16 12:19:37;;;;;;;10.35;4.15;;;;;;;;;;6241982;28;21499;-61
2022/05/16 12:22:38;;;;;;;7.05;3.17;;;;;;;;;;6249653;28;20204;-52
2022/05/16 12:25:39;;;;;;;8.13;3.80;;;;;;;;;;6247808;28;20068;-55
2022/05/16 12:29:00;;;;;;;8.27;4.00;;;;;;;;;;6252500;28;20151;-51
2022/05/16 12:32:00;;;;;;;12.50;4.28;;;;;;;;;;6255497;28;20067;-59
2022/05/16 12:35:08;;;;;;;8.37;3.90;;;;;;;;;;6257509;28;20995;-60
2022/05/16 12:38:11;;;;;;;10.18;4.07;;;;;;;;;;6255857;28;20065;-57
2022/05/16 12:41:44;;;;;;;13.30;4.30;;;;;;;;;;6256770;28;20532;-61
2022/05/16 12:44:52;;;;;;;10.57;3.75;;;;;;;;;;6244427;28;20176;-59
2022/05/16 12:48:11;;;;;;;9.90;3.47;;;;;;;;;;6246007;28;20556;-59
2022/05/16 12:51:24;;;;;;;12.55;4.05;;;;;;;;;;6244905;28;20049;-58
2022/05/16 12:54:46;;;;;;;10.13;3.17;;;;;;;;;;6248183;28;20118;-57
2022/05/16 12:58:12;;;;;;;8.23;2.85;;;;;;;;;;6244541;28;21415;-60
2022/05/16 13:01:39;;;;;;;12.38;3.28;;;;;;;;;;6245409;28;21374;-58
2022/05/16 13:04:47;;;;;;;5.57;2.88;;;;;;;;;;6238549;28;20060;-60
2022/05/16 13:07:57;;;;;;;5.35;2.92;;;;;;;;;;6249243;28;20077;-56
2022/05/16 13:11:18;;;;;;;7.20;2.70;;;;;;;;;;6248783;28;20044;-53
2022/05/16 13:14:42;;;;;;;8.45;3.20;;;;;;;;;;6251242;28;20044;-57
2022/05/16 13:17:50;;;;;;;5.47;2.80;;;;;;;;;;6245577;28;20052;-58
2022/05/16 13:20:56;;;;;;;6.88;3.00;;;;;;;;;;6238818;28;20127;-55
2022/05/16 13:23:57;;;;;;;10.15;3.30;;;;;;;;;;6247796;28;20041;-53
2022/05/16 13:30:21;;;;;;;9.98;2.95;;;;;;;;;;6240065;28;20055;-57
2022/05/16 13:33:27;;;;;;;11.35;3.08;;;;;;;;;;6245712;28;20984;-55
2022/05/16 13:36:28;;;;;;;7.60;2.33;;;;;;;;;;6240002;28;20098;-55
2022/05/16 13:39:34;;;;;;;7.07;2.00;;;;;;;;;;6249672;28;20057;-61
2022/05/16 13:42:38;;;;;;;6.07;3.08;;;;;;;;;;6245720;28;20282;-53
2022/05/16 13:45:38;;;;;;;6.80;2.40;;;;;;;;;;6244057;28;20164;-53
2022/05/16 13:48:42;;;;;;;7.10;2.93;;;;;;;;;;6243416;28;20531;-54
2022/05/16 13:51:46;;;;;;;7.25;2.42;;;;;;;;;;6244983;28;20136;-51
2022/05/16 13:54:48;;;;;;;6.95;2.40;;;;;;;;;;6240707;28;20044;-50
2022/05/16 13:57:49;;;;;;;8.68;2.28;;;;;;;;;;6243970;28;20413;-56
2022/05/16 14:01:09;;;;;;;7.43;2.10;;;;;;;;;;6241589;28;20048;-61
2022/05/16 14:04:14;;;;;;;6.10;2.05;;;;;;;;;;6245822;28;20088;-53
2022/05/16 14:07:19;;;;;;;7.55;2.00;;;;;;;;;;6243412;28;20069;-54
2022/05/16 14:10:23;;;;;;;5.13;1.83;;;;;;;;;;6244827;28;20053;-54
2022/05/16 14:13:29;;;;;;;4.57;2.28;;;;;;;;;;6244084;28;20053;-57
2022/05/16 14:16:37;;;;;;;3.72;1.63;;;;;;;;;;6237066;28;20626;-60
2022/05/16 14:19:43;;;;;;;6.88;1.73;;;;;;;;;;6241226;28;20041;-53
2022/05/16 14:22:50;;;;;;;7.05;1.92;;;;;;;;;;6243723;28;20051;-53
2022/05/16 14:25:53;;;;;;;4.88;1.83;;;;;;;;;;6238683;28;20053;-51
2022/05/16 14:28:58;;;;;;;3.58;1.63;;;;;;;;;;6241788;28;20060;-55
2022/05/16 14:31:59;;;;;;;5.47;2.08;;;;;;;;;;6243573;28;20464;-57
2022/05/16 14:35:10;;;;;;;5.03;1.63;;;;;;;;;;6249379;28;20148;-60
2022/05/16 14:38:13;;;;;;;4.55;1.80;;;;;;;;;;6246436;28;20163;-57
2022/05/16 14:41:23;;;;;;;3.47;1.80;;;;;;;;;;6247047;28;20204;-57
2022/05/16 14:44:38;;;;;;;5.57;1.90;;;;;;;;;;6238725;28;20083;-64
2022/05/16 14:47:44;;;;;;;6.40;1.95;;;;;;;;;;6238727;28;20139;-57
2022/05/16 14:50:45;;;;;;;5.90;1.95;;;;;;;;;;6240557;28;20056;-55
2022/05/16 14:53:47;;;;;;;5.10;1.80;;;;;;;;;;6249980;28;20060;-62
2022/05/16 14:56:47;;;;;;;;;;;;;;;;;;6254865;28;20059;-53
2022/05/16 14:59:48;;;;;;;5.43;2.13;;;;;;;;;;6255798;28;20647;-51
2022/05/16 15:06:08;;;;;;;8.27;3.80;;;;;;;;;;6255184;28;20077;-59
2022/05/16 15:09:15;;;;;;;6.53;1.92;;;;;;;;;;6255324;28;20059;-60
2022/05/16 15:12:16;;;;;;;4.95;1.95;;;;;;;;;;6255776;28;20168;-59
2022/05/16 15:15:16;;;;;;;8.03;2.20;;;;;;;;;;6256252;28;20049;-57
2022/05/16 15:18:18;;;;;;;7.60;1.90;;;;;;;;;;6253492;28;20057;-57
2022/05/16 15:21:19;;;;;;;4.25;1.92;;;;;;;;;;6255711;28;20139;-56
2022/05/16 15:24:26;;;;;;;4.75;1.73;;;;;;;;;;6253982;28;20068;-54
2022/05/16 15:27:27;;;;;;;5.28;2.05;;;;;;;;;;6253457;28;20045;-53
2022/05/16 15:30:29;;;;;;;6.70;1.98;;;;;;;;;;6252013;28;20088;-57
2022/05/16 15:33:30;;;;;;;5.60;2.13;;;;;;;;;;6254862;28;20504;-55
2022/05/16 15:36:33;;;;;;;5.05;2.00;;;;;;;;;;6253212;28;20491;-57
2022/05/16 15:39:35;;;;;;;4.85;2.35;;;;;;;;;;6253312;28;20083;-54
2022/05/16 15:42:36;;;;;;;6.50;2.00;;;;;;;;;;6255427;28;20571;-54
2022/05/16 15:45:39;;;;;;;6.80;1.90;;;;;;;;;;6253773;28;20204;-54
2022/05/16 15:48:41;;;;;;;6.60;2.10;;;;;;;;;;6253421;28;20072;-52
2022/05/16 15:51:42;;;;;;;;;;;;;;;;;;6254214;28;20052;-58
2022/05/16 15:54:43;;;;;;;13.27;2.33;;;;;;;;;;6253930;28;20444;-58
2022/05/16 15:57:44;;;;;;;6.97;2.45;;;;;;;;;;6251344;28;20064;-61
2022/05/16 16:00:49;;;;;;;6.97;1.90;;;;;;;;;;6253322;28;20779;-60
2022/05/16 16:10:29;;;;;;;10.25;2.50;;;;;;;;;;6250836;28;20449;-59
2022/05/16 16:13:30;;;;;;;5.53;2.03;;;;;;;;;;6247134;28;20483;-60
2022/05/16 16:16:31;;;;;;;6.68;1.70;;;;;;;;;;6248553;28;20041;-60
2022/05/16 16:19:39;;;;;;;8.67;2.57;;;;;;;;;;6251769;28;20476;-59
2022/05/16 16:22:40;;;;;;;6.07;2.03;;;;;;;;;;6250828;28;20054;-58
2022/05/16 16:25:41;;;;;;;4.53;2.13;;;;;;;;;;6251739;28;20060;-60
2022/05/16 16:28:42;;;;;;;7.78;2.40;;;;;;;;;;6252347;28;20543;-62
2022/05/16 16:31:43;;;;;;;6.57;2.10;;;;;;;;;;6251970;28;20071;-62
2022/05/16 16:34:44;;;;;;;4.68;1.95;;;;;;;;;;6251571;28;20088;-58
2022/05/16 16:37:45;;;;;;;5.75;2.20;;;;;;;;;;6249455;28;20045;-59
2022/05/16 16:40:48;;;;;;;5.68;2.10;;;;;;;;;;6252488;28;20127;-60
2022/05/16 16:43:51;;;;;;;6.30;1.92;;;;;;;;;;6252003;28;20052;-60
2022/05/16 16:46:51;;;;;;;5.90;2.20;;;;;;;;;;6250447;28;20065;-60
2022/05/16 16:49:54;;;;;;;5.70;2.30;;;;;;;;;;6247968;28;20226;-58
2022/05/16 16:59:34;;;;;;;6.97;2.08;;;;;;;;;;6251356;28;20049;-60
2022/05/16 17:02:38;;;;;;;6.70;2.05;;;;;;;;;;6252995;28;20660;-55
2022/05/16 17:05:39;;;;;;;4.50;2.20;;;;;;;;;;6252364;28;21763;-54
2022/05/16 17:08:39;;;;;;;9.07;2.20;;;;;;;;;;6254836;28;20049;-56
2022/05/16 17:11:40;;;;;;;10.37;2.43;;;;;;;;;;6255757;28;20059;-55
2022/05/16 17:14:40;;;;;;;5.73;2.03;;;;;;;;;;6255292;28;20065;-59
2022/05/16 17:17:44;;;;;;;4.63;1.87;;;;;;;;;;6254400;28;20060;-60
2022/05/16 17:20:45;;;;;;;4.95;2.40;;;;;;;;;;6256917;28;20048;-59
2022/05/16 17:23:48;;;;;;;3.78;2.17;;;;;;;;;;6256996;28;20049;-58
2022/05/16 17:26:49;;;;;;;8.95;2.03;;;;;;;;;;6252887;28;20195;-60
2022/05/16 17:29:49;;;;;;;7.40;2.20;;;;;;;;;;6248475;28;20049;-58
2022/05/16 17:32:50;;;;;;;6.37;2.43;;;;;;;;;;6255654;28;20499;-58
2022/05/16 17:35:50;;;;;;;6.57;2.17;;;;;;;;;;6252734;28;20439;-58
2022/05/16 17:38:51;;;;;;;7.47;2.47;;;;;;;;;;6253213;28;20069;-57
2022/05/16 17:41:51;;;;;;;9.93;2.60;;;;;;;;;;6256853;28;20051;-60
2022/05/16 17:44:54;;;;;;;5.87;2.47;;;;;;;;;;6255138;28;20114;-61
2022/05/16 17:47:54;;;;;;;12.35;4.07;;;;;;;;;;6252463;28;20485;-61
2022/05/16 17:50:58;;;;;;;13.60;3.20;;;;;;;;;;6255928;28;20147;-60
2022/05/16 17:54:12;;;;;;;8.82;3.08;;;;;;;;;;6254401;28;20060;-60
2022/05/16 17:57:14;;;;;;;8.55;2.67;;;;;;;;;;6254133;28;20192;-55
2022/05/16 18:00:15;;;;;;;9.40;3.35;;;;;;;;;;6254680;28;20056;-58
2022/05/16 18:03:15;;;;;;;9.82;3.40;;;;;;;;;;6256099;28;20091;-55
2022/05/16 18:06:17;;;;;;;10.23;3.30;;;;;;;;;;6252642;28;20057;-57
2022/05/16 18:09:19;;;;;;;9.02;3.08;;;;;;;;;;6254851;28;20163;-55
2022/05/16 18:15:39;;;;;;;13.77;5.38;;;;;;;;;;6250963;28;19975;-53
2022/05/16 18:18:40;;;;;;;21.97;4.97;;;;;;;;;;6253333;28;20090;-57
2022/05/16 18:21:42;;;;;;;13.02;4.60;;;;;;;;;;6254451;28;21383;-56
2022/05/16 18:24:42;;;;;;;13.40;5.28;;;;;;;;;;6255202;28;20151;-53
2022/05/16 18:27:44;;;;;;;11.90;5.03;;;;;;;;;;6251526;28;20075;-55
2022/05/16 18:30:44;;;;;;;12.32;4.63;;;;;;;;;;6253506;28;20053;-55
2022/05/16 18:33:45;;;;;;;7.13;3.90;;;;;;;;;;6251674;28;20907;-54
2022/05/16 18:36:47;;;;;;;9.70;3.50;;;;;;;;;;6252082;28;20049;-57
2022/05/16 18:39:48;;;;;;;16.58;5.80;;;;;;;;;;6253941;28;20627;-57
2022/05/16 18:52:50;;;;;;;19.17;6.07;;;;;;;;;;6244154;28;20187;-59
2022/05/16 18:55:52;;;;;;;19.40;6.35;;;;;;;;;;6233552;28;20083;-58
2022/05/16 18:58:52;;;;;;;13.55;5.78;;;;;;;;;;6242124;28;20202;-58
2022/05/16 19:01:53;;;;;;;9.23;4.23;;;;;;;;;;6242618;28;20049;-55
2022/05/16 19:04:54;;;;;;;11.17;4.17;;;;;;;;;;6245126;28;20143;-59
2022/05/16 19:07:57;;;;;;;11.37;5.07;;;;;;;;;;6246365;28;20298;-56
2022/05/16 19:11:03;;;;;;;16.55;5.63;;;;;;;;;;6246236;28;20085;-59
2022/05/16 19:14:04;;;;;;;11.27;4.90;;;;;;;;;;6251339;28;20049;-58
2022/05/16 19:17:07;;;;;;;12.53;5.30;;;;;;;;;;6236830;28;20115;-58
2022/05/16 19:20:09;;;;;;;15.60;7.07;;;;;;;;;;6241800;28;20308;-55
2022/05/16 19:23:11;;;;;;;19.65;7.30;;;;;;;;;;6248141;28;20045;-59
2022/05/16 19:26:12;;;;;;;16.15;7.88;;;;;;;;;;6247823;28;20156;-54
2022/05/16 19:32:32;;;;;;;19.08;7.60;;;;;;;;;;6252670;28;20875;-57
2022/05/16 19:35:33;;;;;;;10.03;4.47;;;;;;;;;;6250812;28;20040;-58